Shelton, Washington
Current Conditions -  °F | °C
As of 4:53 PM on Monday 26 Jan 2015 (Local Time) from KSHN Reporting Station
Clear Clear  
Wind Chill: 55°   Ceiling: Unl
Heat Index: 55°   Visibility: 10mi
Dew Point: 48°   Wind: 16mph
Humidity: 77%   Direction: 230°SW
Pressure: 29.92"   Gusts: NA
Location:  47.21°N, 123.1°W
Report Text: KSHN 270053Z AUTO 23014KT 10SM CLR 13/09 A2992 RMK AO2 SLP135 T01280089
Loading
Personal Weather Stations






























Interactive Weather Map New forecast layout! Learn more

10-Day Weather Forecast

Advertisements
Track Severe Weather on mobile